Time;durP1;ratioP1;P1;durP2;ratioP2;P2;SDS_P1;SDS_P2;PMS_P1;PMS_P2;Temp;Humidity;BMP_temperature;BMP_pressure;BME280_temperature;BME280_humidity;BME280_pressure;Samples;Min_cycle;Max_cycle;Signal;HPM_P1;HPM_P2
2022/02/28 00:00:19;;;;;;;19.15;13.73;;;1.40;99.90;;;;;;5033152;28;20207;-61
2022/02/28 00:02:47;;;;;;;18.85;13.10;;;1.30;99.90;;;;;;5033028;28;20209;-60
2022/02/28 00:05:14;;;;;;;20.98;14.38;;;1.30;99.90;;;;;;5033444;28;20222;-60
2022/02/28 00:07:42;;;;;;;18.65;13.23;;;1.30;99.90;;;;;;5033432;28;20210;-60
2022/02/28 00:10:10;;;;;;;22.30;14.70;;;1.30;99.90;;;;;;5033444;28;20203;-60
2022/02/28 00:12:38;;;;;;;23.67;13.88;;;1.30;99.90;;;;;;5033219;28;20770;-60
2022/02/28 00:15:08;;;;;;;19.98;13.75;;;1.20;99.90;;;;;;5032527;28;20722;-60
2022/02/28 00:17:35;;;;;;;17.67;14.23;;;1.20;99.90;;;;;;5033775;28;20217;-59
2022/02/28 00:20:03;;;;;;;18.50;13.77;;;1.20;99.90;;;;;;5041364;28;20210;-60
2022/02/28 00:22:33;;;;;;;19.60;13.68;;;1.20;99.90;;;;;;5043410;28;20206;-59
2022/02/28 00:25:01;;;;;;;20.75;14.68;;;1.20;99.90;;;;;;5048072;28;20286;-60
2022/02/28 00:27:28;;;;;;;20.25;14.68;;;1.10;99.90;;;;;;5050120;28;20233;-60
2022/02/28 00:29:57;;;;;;;19.65;12.98;;;1.10;99.90;;;;;;5043776;28;20226;-59
2022/02/28 00:32:25;;;;;;;21.98;14.05;;;1.10;99.90;;;;;;5037480;28;20235;-61
2022/02/28 00:34:53;;;;;;;22.77;12.73;;;1.10;99.90;;;;;;5038272;28;20238;-60
2022/02/28 00:37:20;;;;;;;18.48;14.25;;;1.10;99.90;;;;;;5038363;28;20202;-59
2022/02/28 00:39:48;;;;;;;26.25;16.05;;;1.10;99.90;;;;;;5038304;28;20212;-59
2022/02/28 00:42:16;;;;;;;21.40;14.25;;;1.00;99.90;;;;;;5038053;28;20573;-60
2022/02/28 00:44:43;;;;;;;24.23;14.60;;;1.00;99.90;;;;;;5038257;28;20233;-60
2022/02/28 00:47:11;;;;;;;21.23;14.35;;;1.00;99.90;;;;;;5037290;28;20209;-60
2022/02/28 00:49:39;;;;;;;18.33;13.90;;;0.90;99.90;;;;;;5036514;28;20218;-61
2022/02/28 00:52:06;;;;;;;21.15;15.50;;;0.90;99.90;;;;;;5036803;28;20259;-59
2022/02/28 00:54:33;;;;;;;18.42;13.27;;;0.90;99.90;;;;;;5036212;28;20241;-60
2022/02/28 00:57:00;;;;;;;21.33;14.52;;;0.90;99.90;;;;;;5036471;28;20233;-59
2022/02/28 00:59:27;;;;;;;18.98;13.43;;;0.90;99.90;;;;;;5037325;28;20710;-59
2022/02/28 01:01:55;;;;;;;22.70;15.02;;;0.80;99.90;;;;;;5036509;28;20209;-59
2022/02/28 01:04:24;;;;;;;18.38;14.43;;;0.80;99.90;;;;;;5036236;28;20202;-59
2022/02/28 01:06:51;;;;;;;20.27;13.95;;;0.80;99.90;;;;;;5036497;28;20202;-61
2022/02/28 01:09:19;;;;;;;21.10;13.35;;;0.80;99.90;;;;;;5036507;28;20208;-60
2022/02/28 01:11:46;;;;;;;18.98;14.15;;;0.80;99.90;;;;;;5038049;28;20206;-59
2022/02/28 01:14:13;;;;;;;18.13;13.55;;;0.80;99.90;;;;;;5037393;28;20787;-61
2022/02/28 01:16:40;;;;;;;20.98;14.70;;;0.70;99.90;;;;;;5036203;28;20786;-60
2022/02/28 01:19:07;;;;;;;20.38;14.27;;;0.70;99.90;;;;;;5035983;28;20228;-60
2022/02/28 01:21:36;;;;;;;23.83;15.45;;;0.70;99.90;;;;;;5036145;28;20579;-60
2022/02/28 01:24:03;;;;;;;20.00;13.85;;;0.70;99.90;;;;;;5036209;28;20543;-60
2022/02/28 01:26:30;;;;;;;25.13;15.18;;;0.70;99.90;;;;;;5035680;28;20222;-59
2022/02/28 01:28:57;;;;;;;25.38;13.65;;;0.70;99.90;;;;;;5036167;28;20202;-61
2022/02/28 01:31:24;;;;;;;22.55;15.50;;;0.70;99.90;;;;;;5035686;28;20670;-60
2022/02/28 01:33:52;;;;;;;18.65;13.32;;;0.60;99.90;;;;;;5035643;28;20206;-60
2022/02/28 01:36:19;;;;;;;24.80;15.10;;;0.60;99.90;;;;;;5034870;28;20230;-60
2022/02/28 01:38:48;;;;;;;20.77;13.98;;;0.60;99.90;;;;;;5035787;28;20203;-61
2022/02/28 01:41:15;;;;;;;22.67;14.07;;;0.60;99.90;;;;;;5035428;28;20234;-61
2022/02/28 01:43:42;;;;;;;21.10;14.10;;;0.50;99.90;;;;;;5035741;28;20210;-60
2022/02/28 01:46:09;;;;;;;16.77;13.85;;;0.50;99.90;;;;;;5035756;28;20226;-60
2022/02/28 01:48:36;;;;;;;20.30;14.68;;;0.50;99.90;;;;;;5035434;28;20657;-61
2022/02/28 01:51:04;;;;;;;17.83;13.88;;;0.50;99.90;;;;;;5035611;28;20206;-60
2022/02/28 01:53:31;;;;;;;19.50;13.80;;;0.40;99.90;;;;;;5036027;28;20206;-59
2022/02/28 01:56:00;;;;;;;22.95;14.32;;;0.40;99.90;;;;;;5036138;28;20240;-59
2022/02/28 01:58:34;;;;;;;18.52;13.95;;;0.40;99.90;;;;;;5036481;28;20202;-60
2022/02/28 02:01:01;;;;;;;22.15;15.20;;;0.40;99.90;;;;;;5036169;28;20197;-60
2022/02/28 02:03:28;;;;;;;18.35;13.25;;;0.40;99.90;;;;;;5036314;28;20206;-60
2022/02/28 02:05:56;;;;;;;22.40;14.82;;;0.30;99.90;;;;;;5035935;28;20725;-59
2022/02/28 02:08:23;;;;;;;21.83;14.60;;;0.30;99.90;;;;;;5035959;28;20691;-59
2022/02/28 02:10:50;;;;;;;23.65;15.00;;;0.30;99.90;;;;;;5035725;28;20198;-60
2022/02/28 02:13:19;;;;;;;25.00;14.90;;;0.30;99.90;;;;;;5035972;28;20206;-60
2022/02/28 02:15:47;;;;;;;22.23;14.90;;;0.30;99.90;;;;;;5035775;28;20222;-59
2022/02/28 02:18:15;;;;;;;25.60;15.35;;;0.30;99.90;;;;;;5035151;28;20248;-59
2022/02/28 02:20:44;;;;;;;19.80;14.40;;;0.20;99.90;;;;;;5034953;28;20207;-60
2022/02/28 02:23:13;;;;;;;19.73;14.90;;;0.20;99.90;;;;;;5036683;28;20238;-59
2022/02/28 02:25:41;;;;;;;19.90;14.40;;;0.20;99.90;;;;;;5037819;28;20223;-59
2022/02/28 02:28:10;;;;;;;20.55;14.48;;;0.20;99.90;;;;;;5039114;28;20209;-60
2022/02/28 02:30:37;;;;;;;21.58;15.40;;;0.10;99.90;;;;;;5035479;28;20213;-60
2022/02/28 02:33:05;;;;;;;23.63;14.95;;;0.10;99.90;;;;;;5036338;28;20210;-60
2022/02/28 02:35:32;;;;;;;19.77;14.50;;;0.10;99.90;;;;;;5035759;28;20244;-60
2022/02/28 02:38:00;;;;;;;25.80;15.98;;;0.10;99.90;;;;;;5035248;28;20621;-59
2022/02/28 02:40:28;;;;;;;22.70;14.63;;;0.10;99.90;;;;;;5035131;28;20604;-61
2022/02/28 02:42:55;;;;;;;24.58;15.20;;;0.10;99.90;;;;;;5034937;28;20209;-60
2022/02/28 02:45:22;;;;;;;19.02;13.93;;;0.10;99.90;;;;;;5039129;28;20596;-60
2022/02/28 02:47:49;;;;;;;21.40;14.70;;;0.00;99.90;;;;;;5035432;28;20554;-60
2022/02/28 02:50:16;;;;;;;22.95;14.75;;;0.00;99.90;;;;;;5035016;28;20198;-61
2022/02/28 02:52:43;;;;;;;21.30;13.93;;;0.00;99.90;;;;;;5034359;28;20198;-60
2022/02/28 02:55:12;;;;;;;22.02;15.60;;;0.00;99.90;;;;;;5034581;28;20237;-60
2022/02/28 02:57:39;;;;;;;23.35;15.60;;;0.00;99.90;;;;;;5034663;28;20209;-61
2022/02/28 03:00:09;;;;;;;22.38;14.63;;;0.00;99.90;;;;;;5034224;28;20690;-61
2022/02/28 03:02:36;;;;;;;23.73;15.68;;;0.00;99.90;;;;;;5034994;28;20210;-61
2022/02/28 03:05:04;;;;;;;20.25;14.88;;;0.00;99.90;;;;;;5034191;28;20703;-60
2022/02/28 03:07:31;;;;;;;20.83;14.98;;;0.00;99.90;;;;;;5034455;28;20206;-61
2022/02/28 03:09:58;;;;;;;23.77;16.45;;;0.00;99.90;;;;;;5034243;28;20207;-60
2022/02/28 03:12:27;;;;;;;22.55;15.48;;;-0.10;99.90;;;;;;5034428;28;20210;-60
2022/02/28 03:14:54;;;;;;;22.95;15.68;;;-0.10;99.90;;;;;;5034001;28;20232;-60
2022/02/28 03:17:21;;;;;;;22.88;14.70;;;-0.10;99.90;;;;;;5034109;28;20682;-59
2022/02/28 03:19:48;;;;;;;24.60;15.43;;;-0.10;99.90;;;;;;5034763;28;20210;-59
2022/02/28 03:22:15;;;;;;;22.98;14.27;;;-0.10;99.90;;;;;;5036602;28;20206;-60
2022/02/28 03:24:42;;;;;;;24.63;15.98;;;-0.20;99.90;;;;;;5035753;28;20229;-60
2022/02/28 03:27:09;;;;;;;21.60;16.05;;;-0.20;99.90;;;;;;5034974;28;20203;-59
2022/02/28 03:29:38;;;;;;;24.45;15.73;;;-0.20;99.90;;;;;;5034510;28;20217;-60
2022/02/28 03:32:06;;;;;;;24.05;16.92;;;-0.20;99.90;;;;;;5034529;28;20206;-60
2022/02/28 03:34:33;;;;;;;21.88;15.05;;;-0.20;99.90;;;;;;5033961;28;20234;-61
2022/02/28 03:37:00;;;;;;;21.38;15.30;;;-0.20;99.90;;;;;;5034361;28;20270;-61
2022/02/28 03:39:27;;;;;;;24.73;15.63;;;-0.20;99.90;;;;;;5033973;28;20210;-60
2022/02/28 03:41:54;;;;;;;23.90;16.08;;;-0.20;99.90;;;;;;5033827;28;20583;-59
2022/02/28 03:44:22;;;;;;;21.55;15.52;;;-0.30;99.90;;;;;;5033355;28;20204;-61
2022/02/28 03:46:51;;;;;;;23.60;16.23;;;-0.30;99.90;;;;;;5033657;28;20202;-59
2022/02/28 03:49:19;;;;;;;23.27;15.50;;;-0.30;99.90;;;;;;5033649;28;20209;-60
2022/02/28 03:51:46;;;;;;;24.60;15.90;;;-0.30;99.90;;;;;;5033758;28;20210;-60
2022/02/28 03:54:14;;;;;;;24.05;14.70;;;-0.30;99.90;;;;;;5033152;28;20210;-59
2022/02/28 03:56:42;;;;;;;22.05;14.18;;;-0.30;99.90;;;;;;5033510;28;20215;-60
2022/02/28 03:59:11;;;;;;;22.73;15.85;;;-0.30;99.90;;;;;;5032976;28;20213;-60
2022/02/28 04:01:38;;;;;;;22.42;14.73;;;-0.30;99.90;;;;;;5033377;28;20209;-60
2022/02/28 04:04:08;;;;;;;25.73;17.00;;;-0.30;99.90;;;;;;5034286;28;20227;-60
2022/02/28 04:09:24;;;;;;;24.30;15.43;;;-0.30;99.90;;;;;;5091608;27;20538;-60
2022/02/28 04:11:51;;;;;;;24.10;15.73;;;-0.30;99.90;;;;;;5091420;28;20196;-59
2022/02/28 04:14:19;;;;;;;22.00;16.15;;;-0.30;99.90;;;;;;5094779;28;20529;-59
2022/02/28 04:16:46;;;;;;;28.88;18.30;;;-0.30;99.90;;;;;;5092170;28;20204;-60
2022/02/28 04:19:14;;;;;;;24.73;16.50;;;-0.40;99.90;;;;;;5090695;28;20204;-60
2022/02/28 04:21:41;;;;;;;23.90;16.52;;;-0.40;99.90;;;;;;5106826;22;20201;-65
2022/02/28 04:24:08;;;;;;;21.95;16.05;;;-0.40;99.90;;;;;;5051761;28;20228;-62
2022/02/28 04:26:37;;;;;;;27.20;17.33;;;-0.40;99.90;;;;;;5051775;28;20209;-63
2022/02/28 04:29:05;;;;;;;25.30;15.85;;;-0.40;99.90;;;;;;5051848;28;20218;-63
2022/02/28 04:31:33;;;;;;;31.13;17.63;;;-0.40;99.90;;;;;;5051860;28;20713;-63
2022/02/28 04:34:00;;;;;;;25.58;16.17;;;-0.40;99.90;;;;;;5051968;28;20577;-63
2022/02/28 04:36:27;;;;;;;20.85;15.10;;;-0.40;99.90;;;;;;5052451;28;20674;-63
2022/02/28 04:38:57;;;;;;;26.33;17.15;;;-0.40;99.90;;;;;;5049877;28;20194;-64
2022/02/28 04:41:24;;;;;;;30.65;18.20;;;-0.50;99.90;;;;;;5049538;28;20665;-64
2022/02/28 04:43:53;;;;;;;26.02;17.05;;;-0.50;99.90;;;;;;5049725;28;20628;-64
2022/02/28 04:46:20;;;;;;;24.98;17.50;;;-0.50;99.90;;;;;;5049504;28;20205;-64
2022/02/28 04:48:47;;;;;;;20.63;15.57;;;-0.50;99.90;;;;;;5049928;28;20230;-62
2022/02/28 04:51:14;;;;;;;26.17;16.13;;;-0.50;99.90;;;;;;5049780;28;20206;-62
2022/02/28 04:53:42;;;;;;;22.85;14.98;;;-0.50;99.90;;;;;;5049535;28;20343;-63
2022/02/28 04:56:09;;;;;;;28.60;16.83;;;-0.50;99.90;;;;;;5049454;28;20201;-64
2022/02/28 04:58:36;;;;;;;27.63;16.45;;;-0.50;99.90;;;;;;5049626;28;20202;-63
2022/02/28 05:01:04;;;;;;;25.02;16.55;;;-0.50;99.90;;;;;;5049619;28;20206;-63
2022/02/28 05:03:31;;;;;;;26.38;17.67;;;-0.50;99.90;;;;;;5049619;28;20233;-64
2022/02/28 05:05:58;;;;;;;26.10;17.67;;;-0.50;99.90;;;;;;5049414;28;20229;-63
2022/02/28 05:08:25;;;;;;;24.50;15.73;;;-0.50;99.90;;;;;;5049128;28;20222;-63
2022/02/28 05:10:52;;;;;;;24.10;16.60;;;-0.50;99.90;;;;;;5050145;28;20205;-63
2022/02/28 05:13:19;;;;;;;25.55;16.60;;;-0.50;99.90;;;;;;5052477;28;20222;-63
2022/02/28 05:15:47;;;;;;;26.77;17.80;;;-0.50;99.90;;;;;;5052777;28;20213;-62
2022/02/28 05:18:15;;;;;;;25.98;18.13;;;-0.50;99.90;;;;;;5054186;28;20198;-63
2022/02/28 05:20:42;;;;;;;23.85;17.33;;;-0.50;99.90;;;;;;5042309;28;20202;-63
2022/02/28 05:23:09;;;;;;;25.65;17.77;;;-0.50;99.90;;;;;;5040961;28;20230;-63
2022/02/28 05:25:36;;;;;;;23.23;17.35;;;-0.50;99.90;;;;;;5048441;28;20197;-63
2022/02/28 05:28:04;;;;;;;24.55;16.75;;;-0.50;99.90;;;;;;5045122;28;20214;-63
2022/02/28 05:30:32;;;;;;;24.45;17.13;;;-0.50;99.90;;;;;;5039471;28;20210;-61
2022/02/28 05:32:59;;;;;;;22.52;15.52;;;-0.50;99.90;;;;;;5039411;28;20768;-62
2022/02/28 05:35:27;;;;;;;26.77;17.73;;;-0.50;99.90;;;;;;5042733;28;20301;-64
2022/02/28 05:37:54;;;;;;;25.80;17.83;;;-0.50;99.90;;;;;;5042921;28;20244;-64
2022/02/28 05:40:21;;;;;;;25.58;17.20;;;-0.50;99.90;;;;;;5042996;28;20215;-63
2022/02/28 05:42:48;;;;;;;29.50;17.63;;;-0.50;99.90;;;;;;5036863;28;20230;-63
2022/02/28 05:45:15;;;;;;;29.05;17.17;;;-0.50;99.90;;;;;;5036198;28;20198;-63
2022/02/28 05:47:43;;;;;;;26.17;17.73;;;-0.50;99.90;;;;;;5036349;28;20209;-64
2022/02/28 05:50:11;;;;;;;28.73;18.80;;;-0.50;99.90;;;;;;5036219;28;20202;-64
2022/02/28 05:52:39;;;;;;;26.02;17.42;;;-0.50;99.90;;;;;;5036517;28;20268;-64
2022/02/28 05:55:08;;;;;;;28.52;18.23;;;-0.50;99.90;;;;;;5038014;28;20670;-63
2022/02/28 05:57:36;;;;;;;29.05;18.10;;;-0.50;99.90;;;;;;5039748;28;20210;-64
2022/02/28 06:00:05;;;;;;;27.77;18.42;;;-0.50;99.90;;;;;;5037722;28;20222;-63
2022/02/28 06:02:33;;;;;;;29.67;19.58;;;-0.50;99.90;;;;;;5042940;28;20222;-63
2022/02/28 06:05:00;;;;;;;28.73;18.70;;;-0.50;99.90;;;;;;5047791;28;20224;-63
2022/02/28 06:07:27;;;;;;;24.35;18.13;;;-0.50;99.90;;;;;;5046279;28;20234;-62
2022/02/28 06:09:56;;;;;;;28.15;18.80;;;-0.50;99.90;;;;;;5048539;28;20214;-63
2022/02/28 06:12:23;;;;;;;30.85;19.00;;;-0.50;99.90;;;;;;5051201;28;20325;-63
2022/02/28 06:14:50;;;;;;;26.40;19.73;;;-0.50;99.90;;;;;;5047499;28;20213;-63
2022/02/28 06:17:17;;;;;;;28.52;17.88;;;-0.50;99.90;;;;;;5038945;28;20674;-63
2022/02/28 06:19:46;;;;;;;32.08;19.00;;;-0.50;99.90;;;;;;5036284;28;20199;-62
2022/02/28 06:22:14;;;;;;;26.95;19.25;;;-0.50;99.90;;;;;;5035976;28;20272;-62
2022/02/28 06:24:41;;;;;;;27.42;17.40;;;-0.50;99.90;;;;;;5035125;28;20301;-62
2022/02/28 06:27:09;;;;;;;32.30;19.10;;;-0.50;99.90;;;;;;5034897;28;20294;-62
2022/02/28 06:29:37;;;;;;;27.52;19.10;;;-0.50;99.90;;;;;;5035254;28;20253;-62
2022/02/28 06:32:05;;;;;;;28.95;19.02;;;-0.40;99.90;;;;;;5034226;28;20228;-62
2022/02/28 06:34:32;;;;;;;32.22;18.73;;;-0.40;99.90;;;;;;5034551;28;20263;-62
2022/02/28 06:36:59;;;;;;;34.85;18.75;;;-0.40;99.90;;;;;;5034687;28;20723;-62
2022/02/28 06:39:27;;;;;;;32.42;20.75;;;-0.40;99.90;;;;;;5035343;28;20198;-62
2022/02/28 06:41:54;;;;;;;25.38;18.73;;;-0.40;99.90;;;;;;5034450;28;20226;-62
2022/02/28 06:44:22;;;;;;;29.75;18.35;;;-0.30;99.90;;;;;;5034766;28;20203;-62
2022/02/28 06:46:49;;;;;;;28.40;20.40;;;-0.30;99.90;;;;;;5035048;28;20213;-62
2022/02/28 06:49:16;;;;;;;26.58;19.63;;;-0.30;99.90;;;;;;5034976;28;20225;-62
2022/02/28 06:51:43;;;;;;;31.50;19.70;;;-0.20;99.90;;;;;;5034392;28;20682;-62
2022/02/28 06:54:10;;;;;;;31.45;19.83;;;-0.20;99.90;;;;;;5034629;28;20206;-62
2022/02/28 06:56:37;;;;;;;28.65;19.00;;;-0.20;99.90;;;;;;5035115;28;20202;-61
2022/02/28 06:59:05;;;;;;;30.10;19.77;;;-0.10;99.90;;;;;;5034477;28;20202;-65
2022/02/28 07:01:36;;;;;;;27.80;19.13;;;0.00;99.90;;;;;;5034100;28;20202;-64
2022/02/28 07:04:03;;;;;;;25.35;19.33;;;0.00;99.90;;;;;;5035745;28;20250;-63
2022/02/28 07:06:30;;;;;;;31.40;20.85;;;0.10;99.90;;;;;;5035487;28;20551;-62
2022/02/28 07:08:58;;;;;;;27.58;19.00;;;0.20;99.90;;;;;;5035808;28;20218;-64
2022/02/28 07:11:25;;;;;;;25.05;19.20;;;0.30;99.90;;;;;;5037170;28;20202;-64
2022/02/28 07:13:52;;;;;;;25.90;19.77;;;0.30;99.90;;;;;;5041489;28;20222;-63
2022/02/28 07:16:19;;;;;;;27.10;19.92;;;0.40;99.90;;;;;;5039680;28;20209;-63
2022/02/28 07:18:48;;;;;;;24.42;17.77;;;0.40;99.90;;;;;;5044773;28;20202;-65
2022/02/28 07:21:15;;;;;;;27.08;18.83;;;0.50;99.90;;;;;;5047480;28;20206;-64
2022/02/28 07:23:42;;;;;;;26.35;18.67;;;0.60;99.90;;;;;;5050388;28;20233;-63
2022/02/28 07:26:09;;;;;;;25.60;18.95;;;0.80;99.90;;;;;;5052017;28;20206;-64
2022/02/28 07:28:36;;;;;;;25.90;18.88;;;0.90;99.90;;;;;;5048285;28;20227;-64
2022/02/28 07:31:03;;;;;;;26.95;19.33;;;1.10;99.90;;;;;;5039573;28;20206;-64
2022/02/28 07:33:30;;;;;;;26.38;17.90;;;1.20;99.90;;;;;;5033672;28;20245;-66
2022/02/28 07:35:59;;;;;;;25.35;18.30;;;1.30;99.90;;;;;;5033610;28;20202;-67
2022/02/28 07:38:26;;;;;;;24.88;17.80;;;1.40;99.90;;;;;;5038511;28;20198;-64
2022/02/28 07:40:53;;;;;;;24.67;17.98;;;1.40;99.90;;;;;;5039066;28;20275;-62
2022/02/28 07:43:20;;;;;;;27.40;17.75;;;1.50;99.90;;;;;;5034712;28;20254;-64
2022/02/28 07:45:47;;;;;;;24.77;17.17;;;1.50;99.90;;;;;;5035586;28;20202;-64
2022/02/28 07:48:14;;;;;;;28.80;17.70;;;1.60;99.90;;;;;;5034171;28;20211;-67
2022/02/28 07:50:41;;;;;;;24.75;17.88;;;1.80;99.90;;;;;;5033350;28;20675;-68
2022/02/28 07:53:10;;;;;;;25.40;17.58;;;1.80;99.90;;;;;;5033464;28;20226;-65
2022/02/28 07:55:37;;;;;;;27.58;19.27;;;2.00;99.90;;;;;;5033836;28;20202;-67
2022/02/28 07:58:04;;;;;;;21.85;17.02;;;2.00;99.90;;;;;;5033401;28;20206;-66
2022/02/28 08:00:32;;;;;;;25.05;17.02;;;2.00;99.90;;;;;;5041608;28;20218;-66
2022/02/28 08:02:59;;;;;;;31.77;18.63;;;2.00;99.90;;;;;;5045495;28;20222;-65
2022/02/28 08:05:27;;;;;;;20.73;16.67;;;2.00;99.90;;;;;;5044510;28;20209;-64
2022/02/28 08:07:55;;;;;;;25.92;18.35;;;2.10;99.90;;;;;;5042443;28;20605;-65
2022/02/28 08:10:24;;;;;;;25.88;18.67;;;2.10;99.90;;;;;;5033029;28;20222;-64
2022/02/28 08:12:51;;;;;;;24.25;18.02;;;2.10;99.90;;;;;;5033418;28;20230;-65
2022/02/28 08:15:18;;;;;;;27.35;18.13;;;2.10;99.90;;;;;;5033366;28;20690;-65
2022/02/28 08:17:47;;;;;;;28.00;19.48;;;2.20;99.90;;;;;;5033426;28;20713;-65
2022/02/28 08:20:14;;;;;;;26.13;19.48;;;2.20;99.90;;;;;;5033309;28;20195;-66
2022/02/28 08:22:41;;;;;;;31.60;20.00;;;2.30;99.90;;;;;;5033493;28;20230;-64
2022/02/28 08:25:09;;;;;;;39.40;22.30;;;2.30;99.90;;;;;;5033328;28;20198;-64
2022/02/28 08:27:38;;;;;;;36.55;23.95;;;2.40;99.90;;;;;;5033198;28;20556;-64
2022/02/28 08:30:07;;;;;;;44.75;28.42;;;2.40;99.90;;;;;;5033569;28;20257;-63
2022/02/28 08:32:34;;;;;;;45.42;26.55;;;2.30;99.90;;;;;;5032723;28;20234;-62
2022/02/28 08:35:01;;;;;;;46.95;26.70;;;2.30;99.90;;;;;;5033091;28;20579;-65
2022/02/28 08:37:28;;;;;;;43.78;26.92;;;2.40;99.90;;;;;;5032874;28;20198;-64
2022/02/28 08:39:55;;;;;;;55.88;31.88;;;2.50;99.90;;;;;;5034006;28;20198;-65
2022/02/28 08:42:22;;;;;;;49.95;30.25;;;2.60;99.90;;;;;;5033558;28;20245;-64
2022/02/28 08:44:51;;;;;;;52.28;32.30;;;2.60;99.90;;;;;;5034146;28;20229;-66
2022/02/28 08:47:19;;;;;;;61.60;33.72;;;2.70;99.90;;;;;;5032892;28;20210;-66
2022/02/28 08:49:46;;;;;;;53.97;31.73;;;2.60;99.90;;;;;;5033403;28;20638;-67
2022/02/28 08:52:13;;;;;;;61.97;32.88;;;2.60;99.90;;;;;;5033040;28;20313;-67
2022/02/28 08:54:40;;;;;;;52.70;29.70;;;2.60;99.90;;;;;;5034160;28;20202;-65
2022/02/28 08:57:07;;;;;;;55.03;32.42;;;2.60;99.90;;;;;;5036539;28;20225;-64
2022/02/28 08:59:34;;;;;;;55.00;32.17;;;2.60;99.90;;;;;;5036371;28;20574;-65
2022/02/28 09:02:04;;;;;;;55.40;30.77;;;2.70;99.90;;;;;;5037293;28;20261;-64
2022/02/28 09:04:32;;;;;;;54.10;32.25;;;2.80;99.90;;;;;;5036387;28;20203;-65
2022/02/28 09:06:59;;;;;;;52.17;32.38;;;3.00;99.90;;;;;;5037251;28;20568;-65
2022/02/28 09:09:26;;;;;;;52.97;32.67;;;3.10;99.90;;;;;;5036862;28;20245;-66
2022/02/28 09:11:54;;;;;;;55.70;32.20;;;3.10;99.90;;;;;;5036729;28;20254;-68
2022/02/28 09:14:21;;;;;;;46.92;29.73;;;3.20;99.90;;;;;;5037242;28;20525;-63
2022/02/28 09:16:48;;;;;;;49.45;31.17;;;3.20;99.90;;;;;;5039274;28;20206;-67
2022/02/28 09:19:17;;;;;;;49.38;30.58;;;3.20;99.90;;;;;;5038904;28;20667;-67
2022/02/28 09:21:44;;;;;;;49.78;29.92;;;3.20;99.90;;;;;;5037106;28;20678;-68
2022/02/28 09:24:11;;;;;;;47.10;29.92;;;3.30;99.90;;;;;;5038397;28;20206;-63
2022/02/28 09:26:39;;;;;;;45.85;28.48;;;3.40;99.90;;;;;;5036623;28;20237;-66
2022/02/28 09:29:07;;;;;;;51.75;30.15;;;3.40;99.90;;;;;;5037413;28;20230;-67
2022/02/28 09:31:34;;;;;;;52.45;29.63;;;3.50;99.90;;;;;;5037589;28;20237;-66
2022/02/28 09:34:02;;;;;;;43.95;27.67;;;3.60;99.90;;;;;;5040405;28;20690;-66
2022/02/28 09:36:31;;;;;;;44.53;28.17;;;3.80;99.90;;;;;;5037324;28;20203;-68
2022/02/28 09:38:58;;;;;;;46.97;27.77;;;4.00;99.90;;;;;;5036981;28;20203;-64
2022/02/28 09:41:26;;;;;;;37.40;24.23;;;4.20;99.70;;;;;;5036741;28;20203;-65
2022/02/28 09:43:54;;;;;;;39.58;24.63;;;4.30;99.00;;;;;;5037192;28;20218;-68
2022/02/28 09:46:21;;;;;;;42.95;24.77;;;4.40;98.60;;;;;;5036325;28;20213;-67
2022/02/28 09:48:48;;;;;;;39.97;25.23;;;4.50;98.30;;;;;;5035618;28;20674;-66
2022/02/28 09:51:15;;;;;;;38.45;25.65;;;4.60;98.00;;;;;;5036397;28;20206;-66
2022/02/28 09:53:44;;;;;;;33.85;24.70;;;4.80;97.60;;;;;;5036403;28;20227;-66
2022/02/28 09:56:11;;;;;;;38.47;25.00;;;4.80;96.60;;;;;;5037410;28;20289;-68
2022/02/28 09:58:38;;;;;;;51.92;28.88;;;4.80;96.40;;;;;;5036780;28;20293;-67
2022/02/28 10:01:05;;;;;;;49.13;29.45;;;4.90;96.20;;;;;;5037337;28;20298;-64
2022/02/28 10:03:36;;;;;;;55.70;29.13;;;4.90;95.90;;;;;;5036701;28;20714;-65
2022/02/28 10:06:03;;;;;;;48.25;29.27;;;4.90;95.50;;;;;;5037574;28;20195;-65
2022/02/28 10:08:41;;;;;;;47.83;29.67;;;4.90;95.60;;;;;;5037686;28;20225;-68
2022/02/28 10:11:24;;;;;;;43.05;28.15;;;5.00;95.60;;;;;;5037121;28;20248;-66
2022/02/28 10:13:52;;;;;;;44.78;28.67;;;5.00;95.20;;;;;;5035833;28;20222;-64
2022/02/28 10:16:32;;;;;;;51.13;31.50;;;5.10;94.90;;;;;;5036774;28;20210;-64
2022/02/28 10:18:59;;;;;;;52.83;33.92;;;5.10;94.40;;;;;;5035536;28;20197;-65
2022/02/28 10:21:44;;;;;;;56.40;33.40;;;5.10;94.30;;;;;;5035371;28;20250;-64
2022/02/28 10:26:44;;;;;;;63.53;34.55;;;5.00;94.90;;;;;;5056347;22;20714;-64
2022/02/28 10:29:12;;;;;;;58.95;37.80;;;4.90;94.60;;;;;;5035465;28;20206;-63
2022/02/28 10:31:41;;;;;;;56.20;35.38;;;4.80;94.60;;;;;;5034812;28;20577;-64
2022/02/28 10:34:19;;;;;;;54.13;34.20;;;4.70;94.90;;;;;;5034634;28;20238;-63
2022/02/28 10:37:02;;;;;;;56.35;35.78;;;4.70;95.00;;;;;;5015075;28;20236;-64
2022/02/28 10:39:33;;;;;;;53.33;33.13;;;4.60;95.10;;;;;;5014449;28;20229;-63
2022/02/28 10:42:07;;;;;;;52.47;31.00;;;4.50;95.40;;;;;;5014782;28;20191;-63
2022/02/28 10:44:34;;;;;;;51.25;31.60;;;4.50;95.20;;;;;;5014774;28;20230;-63
2022/02/28 10:47:04;;;;;;;45.72;30.17;;;4.40;95.50;;;;;;5014341;28;20210;-62
2022/02/28 10:49:33;;;;;;;49.05;31.35;;;4.40;95.40;;;;;;5014274;28;20227;-62
2022/02/28 10:52:03;;;;;;;48.45;30.05;;;4.40;95.40;;;;;;5014305;28;20521;-62
2022/02/28 10:54:32;;;;;;;46.05;29.63;;;4.30;95.50;;;;;;5014127;28;20203;-62
2022/02/28 10:57:04;;;;;;;46.90;29.92;;;4.40;95.50;;;;;;5014115;28;20243;-62
2022/02/28 10:59:34;;;;;;;41.83;27.58;;;4.40;95.40;;;;;;5014476;28;20281;-62
2022/02/28 11:02:01;;;;;;;38.50;26.80;;;4.40;95.00;;;;;;5014368;28;20191;-62
2022/02/28 11:04:37;;;;;;;41.20;26.90;;;4.30;94.90;;;;;;5013605;28;20627;-63
2022/02/28 11:07:06;;;;;;;37.03;24.23;;;4.20;95.20;;;;;;5013765;28;20557;-62
2022/02/28 11:09:35;;;;;;;37.60;24.40;;;4.20;95.80;;;;;;5014113;28;20226;-62
2022/02/28 11:12:26;;;;;;;36.88;23.67;;;4.20;95.60;;;;;;5013717;28;20215;-63
2022/02/28 11:14:58;;;;;;;35.30;22.52;;;4.30;95.40;;;;;;5013788;28;20258;-64
2022/02/28 11:17:27;;;;;;;36.95;23.05;;;4.30;95.30;;;;;;5013716;28;20222;-62
2022/02/28 11:19:58;;;;;;;32.20;22.52;;;4.30;95.30;;;;;;5013888;28;20203;-62
2022/02/28 11:22:25;;;;;;;36.78;24.10;;;4.40;95.50;;;;;;5013798;28;20188;-62
2022/02/28 11:24:54;;;;;;;32.58;21.95;;;4.50;95.40;;;;;;5013347;28;20305;-60
2022/02/28 11:27:21;;;;;;;34.60;22.60;;;4.70;95.10;;;;;;5013664;28;20238;-61
2022/02/28 11:29:51;;;;;;;31.45;22.15;;;4.80;94.60;;;;;;5013533;28;20226;-61
2022/02/28 11:32:22;;;;;;;31.67;24.02;;;4.90;94.50;;;;;;5012954;28;20203;-62
2022/02/28 11:34:51;;;;;;;31.38;22.33;;;5.10;94.30;;;;;;5013881;28;20565;-62
2022/02/28 11:37:23;;;;;;;30.90;22.40;;;5.20;94.00;;;;;;5013234;28;20225;-62
2022/02/28 11:39:50;;;;;;;32.85;21.33;;;5.30;93.80;;;;;;5013787;28;20229;-62
2022/02/28 11:42:37;;;;;;;34.33;22.50;;;5.30;93.30;;;;;;5013677;28;20207;-62
2022/02/28 11:45:12;;;;;;;33.50;21.83;;;5.20;93.10;;;;;;5013103;28;20227;-62
2022/02/28 11:47:40;;;;;;;35.45;22.83;;;5.20;93.20;;;;;;5013494;28;20197;-61
2022/02/28 11:50:17;;;;;;;35.80;23.42;;;5.10;93.30;;;;;;5013209;28;20313;-61
2022/02/28 11:52:45;;;;;;;33.80;23.48;;;5.10;93.50;;;;;;5013121;28;20627;-62
2022/02/28 11:55:15;;;;;;;30.85;21.70;;;5.20;93.50;;;;;;5012887;28;20219;-62
2022/02/28 11:57:51;;;;;;;31.63;21.73;;;5.30;93.20;;;;;;5013152;28;20237;-62
2022/02/28 12:00:22;;;;;;;26.38;19.23;;;5.30;93.00;;;;;;5012934;28;20205;-62
2022/02/28 12:02:51;;;;;;;29.40;20.60;;;5.30;93.30;;;;;;5013500;28;20554;-62
2022/02/28 12:05:40;;;;;;;27.60;20.40;;;5.30;93.20;;;;;;5013355;28;20223;-62
2022/02/28 12:08:10;;;;;;;28.02;20.55;;;5.50;93.20;;;;;;5013054;28;20207;-61
2022/02/28 12:10:38;;;;;;;32.28;19.17;;;5.60;92.80;;;;;;5012850;28;20758;-62
2022/02/28 12:13:06;;;;;;;31.08;21.65;;;5.50;92.70;;;;;;5012883;28;20282;-61
2022/02/28 12:15:33;;;;;;;31.33;21.55;;;5.50;92.80;;;;;;5012704;28;20826;-62
2022/02/28 12:18:07;;;;;;;30.38;21.55;;;5.60;92.90;;;;;;5014057;28;20597;-62
2022/02/28 12:20:45;;;;;;;32.92;20.35;;;5.60;92.40;;;;;;5012933;28;20219;-62
2022/02/28 12:23:16;;;;;;;30.80;21.83;;;5.50;92.40;;;;;;5013174;28;20249;-62
2022/02/28 12:25:45;;;;;;;29.52;18.80;;;5.40;93.00;;;;;;5012947;28;20320;-63
2022/02/28 12:28:24;;;;;;;30.88;21.15;;;5.60;93.00;;;;;;5013202;28;20574;-63
2022/02/28 12:30:55;;;;;;;25.98;18.17;;;5.70;92.80;;;;;;5016493;28;20225;-63
2022/02/28 12:33:27;;;;;;;27.42;19.08;;;5.70;92.70;;;;;;5017475;28;20187;-64
2022/02/28 12:35:57;;;;;;;29.10;19.90;;;5.70;92.60;;;;;;5018304;28;20234;-60
2022/02/28 12:38:26;;;;;;;28.27;18.90;;;5.70;92.60;;;;;;5017357;28;20635;-63
2022/02/28 12:40:55;;;;;;;29.42;18.88;;;5.70;92.60;;;;;;5017206;28;20203;-64
2022/02/28 12:43:24;;;;;;;24.80;18.80;;;5.60;92.30;;;;;;5017829;28;20218;-62